sensor_id;sensor_type;location;lat;lon;timestamp;temperature;humidity
12426;DHT22;6277;49.824;9.562;2022-11-14T00:02:06;7.40;73.00
12426;DHT22;6277;49.824;9.562;2022-11-14T00:04:32;7.40;73.00
12426;DHT22;6277;49.824;9.562;2022-11-14T00:06:57;7.40;73.10
12426;DHT22;6277;49.824;9.562;2022-11-14T00:09:25;7.40;73.10
12426;DHT22;6277;49.824;9.562;2022-11-14T00:11:50;7.50;73.30
12426;DHT22;6277;49.824;9.562;2022-11-14T00:14:16;7.50;73.20
12426;DHT22;6277;49.824;9.562;2022-11-14T00:16:42;7.50;73.20
12426;DHT22;6277;49.824;9.562;2022-11-14T00:19:07;7.50;73.20
12426;DHT22;6277;49.824;9.562;2022-11-14T00:21:33;7.50;73.20
12426;DHT22;6277;49.824;9.562;2022-11-14T00:23:58;7.60;73.20
12426;DHT22;6277;49.824;9.562;2022-11-14T00:26:24;7.50;73.10
12426;DHT22;6277;49.824;9.562;2022-11-14T00:28:49;7.60;73.10
12426;DHT22;6277;49.824;9.562;2022-11-14T00:31:15;7.60;73.10
12426;DHT22;6277;49.824;9.562;2022-11-14T00:33:40;7.60;73.10
12426;DHT22;6277;49.824;9.562;2022-11-14T00:36:06;7.60;73.10
12426;DHT22;6277;49.824;9.562;2022-11-14T00:38:32;7.60;73.00
12426;DHT22;6277;49.824;9.562;2022-11-14T00:40:57;7.60;73.00
12426;DHT22;6277;49.824;9.562;2022-11-14T00:43:23;7.60;72.90
12426;DHT22;6277;49.824;9.562;2022-11-14T00:45:48;7.60;72.80
12426;DHT22;6277;49.824;9.562;2022-11-14T00:48:14;7.60;72.80
12426;DHT22;6277;49.824;9.562;2022-11-14T00:50:41;7.60;72.80
12426;DHT22;6277;49.824;9.562;2022-11-14T00:53:07;7.60;72.70
12426;DHT22;6277;49.824;9.562;2022-11-14T00:55:33;7.50;72.60
12426;DHT22;6277;49.824;9.562;2022-11-14T00:57:58;7.50;72.60
12426;DHT22;6277;49.824;9.562;2022-11-14T01:00:24;7.50;72.60
12426;DHT22;6277;49.824;9.562;2022-11-14T01:02:49;7.50;72.60
12426;DHT22;6277;49.824;9.562;2022-11-14T01:05:15;7.50;72.60
12426;DHT22;6277;49.824;9.562;2022-11-14T01:07:40;7.50;72.50
12426;DHT22;6277;49.824;9.562;2022-11-14T01:10:07;7.40;72.50
12426;DHT22;6277;49.824;9.562;2022-11-14T01:12:33;7.40;72.50
12426;DHT22;6277;49.824;9.562;2022-11-14T01:14:59;7.40;72.50
12426;DHT22;6277;49.824;9.562;2022-11-14T01:17:24;7.40;72.50
12426;DHT22;6277;49.824;9.562;2022-11-14T01:19:53;7.30;72.40
12426;DHT22;6277;49.824;9.562;2022-11-14T01:22:18;7.30;72.40
12426;DHT22;6277;49.824;9.562;2022-11-14T01:24:44;7.30;72.40
12426;DHT22;6277;49.824;9.562;2022-11-14T01:27:09;7.20;72.30
12426;DHT22;6277;49.824;9.562;2022-11-14T01:29:35;7.20;72.30
12426;DHT22;6277;49.824;9.562;2022-11-14T01:32:00;7.20;72.40
12426;DHT22;6277;49.824;9.562;2022-11-14T01:34:26;7.10;72.40
12426;DHT22;6277;49.824;9.562;2022-11-14T01:36:53;7.10;72.40
12426;DHT22;6277;49.824;9.562;2022-11-14T01:39:19;7.10;72.40
12426;DHT22;6277;49.824;9.562;2022-11-14T01:41:45;7.10;72.40
12426;DHT22;6277;49.824;9.562;2022-11-14T01:44:15;7.00;72.40
12426;DHT22;6277;49.824;9.562;2022-11-14T01:46:45;7.00;72.50
12426;DHT22;6277;49.824;9.562;2022-11-14T01:49:16;7.00;72.50
12426;DHT22;6277;49.824;9.562;2022-11-14T01:51:48;6.90;72.50
12426;DHT22;6277;49.824;9.562;2022-11-14T01:54:32;6.90;72.60
12426;DHT22;6277;49.824;9.562;2022-11-14T01:57:00;6.90;72.60
12426;DHT22;6277;49.824;9.562;2022-11-14T01:59:39;6.90;72.60
12426;DHT22;6277;49.824;9.562;2022-11-14T02:02:11;6.90;72.60
12426;DHT22;6277;49.824;9.562;2022-11-14T02:04:42;6.80;72.50
12426;DHT22;6277;49.824;9.562;2022-11-14T02:07:10;6.80;72.50
12426;DHT22;6277;49.824;9.562;2022-11-14T02:09:38;6.80;72.40
12426;DHT22;6277;49.824;9.562;2022-11-14T02:12:06;6.70;72.40
12426;DHT22;6277;49.824;9.562;2022-11-14T02:14:34;6.70;72.40
12426;DHT22;6277;49.824;9.562;2022-11-14T02:17:01;6.70;72.40
12426;DHT22;6277;49.824;9.562;2022-11-14T02:19:40;6.60;72.30
12426;DHT22;6277;49.824;9.562;2022-11-14T02:22:06;6.60;72.50
12426;DHT22;6277;49.824;9.562;2022-11-14T02:24:31;6.60;72.30
12426;DHT22;6277;49.824;9.562;2022-11-14T02:26:57;6.50;72.30
12426;DHT22;6277;49.824;9.562;2022-11-14T02:29:23;6.50;72.40
12426;DHT22;6277;49.824;9.562;2022-11-14T02:31:48;6.50;72.50
12426;DHT22;6277;49.824;9.562;2022-11-14T02:34:14;6.50;72.60
12426;DHT22;6277;49.824;9.562;2022-11-14T02:36:44;6.50;72.70
12426;DHT22;6277;49.824;9.562;2022-11-14T02:39:09;6.40;72.70
12426;DHT22;6277;49.824;9.562;2022-11-14T02:41:35;6.40;72.80
12426;DHT22;6277;49.824;9.562;2022-11-14T02:44:00;6.40;72.90
12426;DHT22;6277;49.824;9.562;2022-11-14T02:46:26;6.40;72.90
12426;DHT22;6277;49.824;9.562;2022-11-14T02:48:51;6.40;73.00
12426;DHT22;6277;49.824;9.562;2022-11-14T02:51:17;6.40;73.00
12426;DHT22;6277;49.824;9.562;2022-11-14T02:53:42;6.50;73.10
12426;DHT22;6277;49.824;9.562;2022-11-14T02:56:08;6.40;73.10
12426;DHT22;6277;49.824;9.562;2022-11-14T02:58:34;6.40;73.10
12426;DHT22;6277;49.824;9.562;2022-11-14T03:00:59;6.40;73.00
12426;DHT22;6277;49.824;9.562;2022-11-14T03:03:25;6.40;73.00
12426;DHT22;6277;49.824;9.562;2022-11-14T03:05:50;6.40;72.90
12426;DHT22;6277;49.824;9.562;2022-11-14T03:08:18;6.40;72.90
12426;DHT22;6277;49.824;9.562;2022-11-14T03:10:44;6.40;72.90
12426;DHT22;6277;49.824;9.562;2022-11-14T03:13:10;6.40;72.90
12426;DHT22;6277;49.824;9.562;2022-11-14T03:15:36;6.40;72.90
12426;DHT22;6277;49.824;9.562;2022-11-14T03:18:02;6.40;72.90
12426;DHT22;6277;49.824;9.562;2022-11-14T03:20:28;6.40;72.80
12426;DHT22;6277;49.824;9.562;2022-11-14T03:22:53;6.30;72.70
12426;DHT22;6277;49.824;9.562;2022-11-14T03:25:19;6.30;72.70
12426;DHT22;6277;49.824;9.562;2022-11-14T03:27:44;6.30;72.80
12426;DHT22;6277;49.824;9.562;2022-11-14T03:30:10;6.30;72.70
12426;DHT22;6277;49.824;9.562;2022-11-14T03:32:36;6.30;72.80
12426;DHT22;6277;49.824;9.562;2022-11-14T03:35:01;6.30;72.80
12426;DHT22;6277;49.824;9.562;2022-11-14T03:37:27;6.20;72.90
12426;DHT22;6277;49.824;9.562;2022-11-14T03:39:53;6.30;73.00
12426;DHT22;6277;49.824;9.562;2022-11-14T03:42:18;6.30;73.00
12426;DHT22;6277;49.824;9.562;2022-11-14T03:44:44;6.20;73.10
12426;DHT22;6277;49.824;9.562;2022-11-14T03:47:10;6.20;73.30
12426;DHT22;6277;49.824;9.562;2022-11-14T03:49:35;6.30;73.50
12426;DHT22;6277;49.824;9.562;2022-11-14T03:52:01;6.20;73.50
12426;DHT22;6277;49.824;9.562;2022-11-14T03:54:26;6.30;73.60
12426;DHT22;6277;49.824;9.562;2022-11-14T03:56:52;6.30;73.60
12426;DHT22;6277;49.824;9.562;2022-11-14T03:59:17;6.30;73.60
12426;DHT22;6277;49.824;9.562;2022-11-14T04:01:43;6.40;73.60
12426;DHT22;6277;49.824;9.562;2022-11-14T04:04:10;6.40;73.50
12426;DHT22;6277;49.824;9.562;2022-11-14T04:06:36;6.40;73.60
12426;DHT22;6277;49.824;9.562;2022-11-14T04:09:03;6.40;73.60
12426;DHT22;6277;49.824;9.562;2022-11-14T04:11:28;6.50;73.70
12426;DHT22;6277;49.824;9.562;2022-11-14T04:13:54;6.50;73.80
12426;DHT22;6277;49.824;9.562;2022-11-14T04:16:19;6.60;74.00
12426;DHT22;6277;49.824;9.562;2022-11-14T04:18:45;6.60;74.10
12426;DHT22;6277;49.824;9.562;2022-11-14T04:21:11;6.70;74.20
12426;DHT22;6277;49.824;9.562;2022-11-14T04:23:36;6.70;74.30
12426;DHT22;6277;49.824;9.562;2022-11-14T04:26:02;6.80;74.40
12426;DHT22;6277;49.824;9.562;2022-11-14T04:28:27;6.90;74.50
12426;DHT22;6277;49.824;9.562;2022-11-14T04:30:53;7.00;74.60
12426;DHT22;6277;49.824;9.562;2022-11-14T04:33:18;7.10;74.60
12426;DHT22;6277;49.824;9.562;2022-11-14T04:35:44;7.20;74.70
12426;DHT22;6277;49.824;9.562;2022-11-14T04:38:09;7.30;74.70
12426;DHT22;6277;49.824;9.562;2022-11-14T04:40:35;7.30;74.60
12426;DHT22;6277;49.824;9.562;2022-11-14T04:43:01;7.40;74.60
12426;DHT22;6277;49.824;9.562;2022-11-14T04:45:26;7.50;74.60
12426;DHT22;6277;49.824;9.562;2022-11-14T04:47:52;7.60;74.60
12426;DHT22;6277;49.824;9.562;2022-11-14T04:50:17;7.70;74.50
12426;DHT22;6277;49.824;9.562;2022-11-14T04:52:43;7.70;74.40
12426;DHT22;6277;49.824;9.562;2022-11-14T04:55:08;7.80;74.30
12426;DHT22;6277;49.824;9.562;2022-11-14T04:57:34;7.80;74.20
12426;DHT22;6277;49.824;9.562;2022-11-14T05:00:00;7.90;74.20
12426;DHT22;6277;49.824;9.562;2022-11-14T05:02:25;8.00;74.20
12426;DHT22;6277;49.824;9.562;2022-11-14T05:04:51;8.00;74.00
12426;DHT22;6277;49.824;9.562;2022-11-14T05:07:16;8.00;74.00
12426;DHT22;6277;49.824;9.562;2022-11-14T05:09:42;8.10;74.00
12426;DHT22;6277;49.824;9.562;2022-11-14T05:12:08;8.10;74.00
12426;DHT22;6277;49.824;9.562;2022-11-14T05:14:33;8.10;73.90
12426;DHT22;6277;49.824;9.562;2022-11-14T05:16:59;8.20;73.90
12426;DHT22;6277;49.824;9.562;2022-11-14T05:19:24;8.20;73.80
12426;DHT22;6277;49.824;9.562;2022-11-14T05:21:50;8.30;73.90
12426;DHT22;6277;49.824;9.562;2022-11-14T05:24:15;8.30;73.90
12426;DHT22;6277;49.824;9.562;2022-11-14T05:26:41;8.30;73.90
12426;DHT22;6277;49.824;9.562;2022-11-14T05:29:07;8.30;73.90
12426;DHT22;6277;49.824;9.562;2022-11-14T05:31:32;8.40;73.90
12426;DHT22;6277;49.824;9.562;2022-11-14T05:33:58;8.40;73.90
12426;DHT22;6277;49.824;9.562;2022-11-14T05:36:23;8.40;73.90
12426;DHT22;6277;49.824;9.562;2022-11-14T05:38:49;8.50;73.90
12426;DHT22;6277;49.824;9.562;2022-11-14T05:41:16;8.50;73.90
12426;DHT22;6277;49.824;9.562;2022-11-14T05:43:42;8.50;73.90
12426;DHT22;6277;49.824;9.562;2022-11-14T05:46:10;8.50;73.80
12426;DHT22;6277;49.824;9.562;2022-11-14T05:48:36;8.60;73.80
12426;DHT22;6277;49.824;9.562;2022-11-14T05:51:04;8.60;73.80
12426;DHT22;6277;49.824;9.562;2022-11-14T05:53:31;8.60;73.80
12426;DHT22;6277;49.824;9.562;2022-11-14T05:56:05;8.60;73.80
12426;DHT22;6277;49.824;9.562;2022-11-14T05:58:32;8.60;73.80
12426;DHT22;6277;49.824;9.562;2022-11-14T06:01:36;8.70;73.90
12426;DHT22;6277;49.824;9.562;2022-11-14T06:03:54;8.70;73.80
12426;DHT22;6277;49.824;9.562;2022-11-14T06:06:20;8.70;73.80
12426;DHT22;6277;49.824;9.562;2022-11-14T06:08:47;8.70;73.80
12426;DHT22;6277;49.824;9.562;2022-11-14T06:11:17;8.70;73.70
12426;DHT22;6277;49.824;9.562;2022-11-14T06:13:44;8.70;73.70
12426;DHT22;6277;49.824;9.562;2022-11-14T06:16:11;8.70;73.70
12426;DHT22;6277;49.824;9.562;2022-11-14T06:18:38;8.70;74.30
12426;DHT22;6277;49.824;9.562;2022-11-14T06:21:06;8.70;73.70
12426;DHT22;6277;49.824;9.562;2022-11-14T06:23:32;8.80;73.80
12426;DHT22;6277;49.824;9.562;2022-11-14T06:26:00;8.80;73.70
12426;DHT22;6277;49.824;9.562;2022-11-14T06:28:26;8.80;73.80
12426;DHT22;6277;49.824;9.562;2022-11-14T06:30:59;8.80;73.80
12426;DHT22;6277;49.824;9.562;2022-11-14T06:33:26;8.80;73.80
12426;DHT22;6277;49.824;9.562;2022-11-14T06:36:00;8.80;74.40
12426;DHT22;6277;49.824;9.562;2022-11-14T06:38:26;8.80;73.80
12426;DHT22;6277;49.824;9.562;2022-11-14T06:41:07;8.80;73.80
12426;DHT22;6277;49.824;9.562;2022-11-14T06:43:33;8.80;73.90
12426;DHT22;6277;49.824;9.562;2022-11-14T06:45:59;8.80;73.80
12426;DHT22;6277;49.824;9.562;2022-11-14T06:48:25;8.90;73.90
12426;DHT22;6277;49.824;9.562;2022-11-14T06:50:55;8.90;73.90
12426;DHT22;6277;49.824;9.562;2022-11-14T06:53:21;8.90;74.00
12426;DHT22;6277;49.824;9.562;2022-11-14T06:55:57;8.90;73.90
12426;DHT22;6277;49.824;9.562;2022-11-14T06:58:28;9.00;74.00
12426;DHT22;6277;49.824;9.562;2022-11-14T07:00:54;9.00;74.00
12426;DHT22;6277;49.824;9.562;2022-11-14T07:03:20;9.00;73.90
12426;DHT22;6277;49.824;9.562;2022-11-14T07:05:46;9.00;73.90
12426;DHT22;6277;49.824;9.562;2022-11-14T07:08:12;9.10;73.90
12426;DHT22;6277;49.824;9.562;2022-11-14T07:10:37;9.10;74.00
12426;DHT22;6277;49.824;9.562;2022-11-14T07:13:03;9.10;74.00
12426;DHT22;6277;49.824;9.562;2022-11-14T07:15:28;9.20;74.00
12426;DHT22;6277;49.824;9.562;2022-11-14T07:17:54;9.20;74.00
12426;DHT22;6277;49.824;9.562;2022-11-14T07:20:20;9.20;73.90
12426;DHT22;6277;49.824;9.562;2022-11-14T07:22:46;9.30;74.00
12426;DHT22;6277;49.824;9.562;2022-11-14T07:25:12;9.20;73.90
12426;DHT22;6277;49.824;9.562;2022-11-14T07:27:37;9.30;74.00
12426;DHT22;6277;49.824;9.562;2022-11-14T07:30:03;9.40;74.00
12426;DHT22;6277;49.824;9.562;2022-11-14T07:32:29;9.40;74.00
12426;DHT22;6277;49.824;9.562;2022-11-14T07:34:55;9.40;74.00
12426;DHT22;6277;49.824;9.562;2022-11-14T07:37:20;9.40;74.00
12426;DHT22;6277;49.824;9.562;2022-11-14T07:39:46;9.50;74.70
12426;DHT22;6277;49.824;9.562;2022-11-14T07:42:11;9.50;74.00
12426;DHT22;6277;49.824;9.562;2022-11-14T07:44:37;9.60;74.00
12426;DHT22;6277;49.824;9.562;2022-11-14T07:47:02;9.60;74.00
12426;DHT22;6277;49.824;9.562;2022-11-14T07:49:28;9.70;74.00
12426;DHT22;6277;49.824;9.562;2022-11-14T07:51:53;9.70;74.00
12426;DHT22;6277;49.824;9.562;2022-11-14T07:54:19;9.70;73.90
12426;DHT22;6277;49.824;9.562;2022-11-14T07:56:45;9.80;74.00
12426;DHT22;6277;49.824;9.562;2022-11-14T07:59:10;9.80;73.90
12426;DHT22;6277;49.824;9.562;2022-11-14T08:01:36;9.90;73.90
12426;DHT22;6277;49.824;9.562;2022-11-14T08:04:01;9.90;73.80
12426;DHT22;6277;49.824;9.562;2022-11-14T08:06:27;10.00;73.80
12426;DHT22;6277;49.824;9.562;2022-11-14T08:08:53;10.00;73.80
12426;DHT22;6277;49.824;9.562;2022-11-14T08:11:18;10.00;73.70
12426;DHT22;6277;49.824;9.562;2022-11-14T08:14:04;10.10;73.70
12426;DHT22;6277;49.824;9.562;2022-11-14T08:16:29;10.10;73.70
12426;DHT22;6277;49.824;9.562;2022-11-14T08:18:55;10.10;73.70
12426;DHT22;6277;49.824;9.562;2022-11-14T08:21:20;10.20;73.70
12426;DHT22;6277;49.824;9.562;2022-11-14T08:23:46;10.20;73.70
12426;DHT22;6277;49.824;9.562;2022-11-14T08:26:11;10.30;73.70
12426;DHT22;6277;49.824;9.562;2022-11-14T08:28:37;10.30;73.70
12426;DHT22;6277;49.824;9.562;2022-11-14T08:31:03;10.30;73.60
12426;DHT22;6277;49.824;9.562;2022-11-14T08:33:30;10.40;73.60
12426;DHT22;6277;49.824;9.562;2022-11-14T08:36:00;10.40;73.60
12426;DHT22;6277;49.824;9.562;2022-11-14T08:38:25;10.40;73.50
12426;DHT22;6277;49.824;9.562;2022-11-14T08:40:51;10.50;73.60
12426;DHT22;6277;49.824;9.562;2022-11-14T08:43:16;10.50;73.50
12426;DHT22;6277;49.824;9.562;2022-11-14T08:45:42;10.50;73.50
12426;DHT22;6277;49.824;9.562;2022-11-14T08:48:07;10.50;73.40
12426;DHT22;6277;49.824;9.562;2022-11-14T08:50:33;10.60;73.50
12426;DHT22;6277;49.824;9.562;2022-11-14T08:52:58;10.60;73.50
12426;DHT22;6277;49.824;9.562;2022-11-14T08:55:24;10.70;73.50
12426;DHT22;6277;49.824;9.562;2022-11-14T08:57:52;10.70;73.50
12426;DHT22;6277;49.824;9.562;2022-11-14T09:00:17;10.80;73.40
12426;DHT22;6277;49.824;9.562;2022-11-14T09:02:43;10.80;73.50
12426;DHT22;6277;49.824;9.562;2022-11-14T09:05:08;10.90;73.50
12426;DHT22;6277;49.824;9.562;2022-11-14T09:07:34;10.90;73.40
12426;DHT22;6277;49.824;9.562;2022-11-14T09:10:00;11.00;73.50
12426;DHT22;6277;49.824;9.562;2022-11-14T09:12:25;11.00;73.50
12426;DHT22;6277;49.824;9.562;2022-11-14T09:14:51;11.10;73.50
12426;DHT22;6277;49.824;9.562;2022-11-14T09:17:16;11.20;73.60
12426;DHT22;6277;49.824;9.562;2022-11-14T09:19:42;11.30;73.60
12426;DHT22;6277;49.824;9.562;2022-11-14T09:22:07;11.30;73.50
12426;DHT22;6277;49.824;9.562;2022-11-14T09:24:33;11.40;73.40
12426;DHT22;6277;49.824;9.562;2022-11-14T09:26:58;11.50;73.90
12426;DHT22;6277;49.824;9.562;2022-11-14T09:29:24;11.50;73.20
12426;DHT22;6277;49.824;9.562;2022-11-14T09:31:50;11.50;73.10
12426;DHT22;6277;49.824;9.562;2022-11-14T09:34:16;11.60;73.10
12426;DHT22;6277;49.824;9.562;2022-11-14T09:36:42;11.60;73.00
12426;DHT22;6277;49.824;9.562;2022-11-14T09:39:07;11.60;72.80
12426;DHT22;6277;49.824;9.562;2022-11-14T09:41:49;11.70;72.80
12426;DHT22;6277;49.824;9.562;2022-11-14T09:47:09;11.70;72.70
12426;DHT22;6277;49.824;9.562;2022-11-14T09:49:42;11.80;72.50
12426;DHT22;6277;49.824;9.562;2022-11-14T09:52:27;11.80;72.60
12426;DHT22;6277;49.824;9.562;2022-11-14T09:55:08;11.80;72.40
12426;DHT22;6277;49.824;9.562;2022-11-14T09:57:34;11.80;72.40
12426;DHT22;6277;49.824;9.562;2022-11-14T10:00:00;11.90;72.60
12426;DHT22;6277;49.824;9.562;2022-11-14T10:05:31;11.90;72.10
12426;DHT22;6277;49.824;9.562;2022-11-14T10:13:37;12.00;72.20
12426;DHT22;6277;49.824;9.562;2022-11-14T10:22:03;12.10;72.00
12426;DHT22;6277;49.824;9.562;2022-11-14T10:27:27;12.20;72.00
12426;DHT22;6277;49.824;9.562;2022-11-14T10:32:57;12.20;71.90
12426;DHT22;6277;49.824;9.562;2022-11-14T10:35:30;12.30;72.00
12426;DHT22;6277;49.824;9.562;2022-11-14T10:38:14;12.30;72.20
12426;DHT22;6277;49.824;9.562;2022-11-14T10:40:45;12.40;71.70
12426;DHT22;6277;49.824;9.562;2022-11-14T10:43:26;12.40;71.70
12426;DHT22;6277;49.824;9.562;2022-11-14T10:45:57;12.40;71.40
12426;DHT22;6277;49.824;9.562;2022-11-14T10:48:45;12.40;71.60
12426;DHT22;6277;49.824;9.562;2022-11-14T10:56:48;12.50;71.90
12426;DHT22;6277;49.824;9.562;2022-11-14T10:59:14;12.60;72.20
12426;DHT22;6277;49.824;9.562;2022-11-14T11:01:40;12.70;72.50
12426;DHT22;6277;49.824;9.562;2022-11-14T11:04:22;12.80;72.40
12426;DHT22;6277;49.824;9.562;2022-11-14T11:06:51;12.90;71.90
12426;DHT22;6277;49.824;9.562;2022-11-14T11:09:19;12.90;71.80
12426;DHT22;6277;49.824;9.562;2022-11-14T11:12:05;12.90;71.50
12426;DHT22;6277;49.824;9.562;2022-11-14T11:14:32;12.90;71.10
12426;DHT22;6277;49.824;9.562;2022-11-14T11:19:36;12.80;70.00
12426;DHT22;6277;49.824;9.562;2022-11-14T11:22:03;12.70;70.40
12426;DHT22;6277;49.824;9.562;2022-11-14T11:24:34;12.60;70.60
12426;DHT22;6277;49.824;9.562;2022-11-14T11:27:13;12.60;70.60
12426;DHT22;6277;49.824;9.562;2022-11-14T11:29:40;12.50;70.30
12426;DHT22;6277;49.824;9.562;2022-11-14T11:32:07;12.50;70.50
12426;DHT22;6277;49.824;9.562;2022-11-14T11:34:33;12.40;70.40
12426;DHT22;6277;49.824;9.562;2022-11-14T11:39:39;12.30;70.40
12426;DHT22;6277;49.824;9.562;2022-11-14T11:42:08;12.20;70.60
12426;DHT22;6277;49.824;9.562;2022-11-14T11:44:43;12.20;70.90
12426;DHT22;6277;49.824;9.562;2022-11-14T11:47:16;12.20;71.00
12426;DHT22;6277;49.824;9.562;2022-11-14T11:49:47;12.20;71.10
12426;DHT22;6277;49.824;9.562;2022-11-14T11:58:04;12.20;71.00
12426;DHT22;6277;49.824;9.562;2022-11-14T12:00:31;12.20;71.00
12426;DHT22;6277;49.824;9.562;2022-11-14T12:02:57;12.20;71.40
12426;DHT22;6277;49.824;9.562;2022-11-14T12:05:47;12.20;71.50
12426;DHT22;6277;49.824;9.562;2022-11-14T12:08:47;12.20;71.40
12426;DHT22;6277;49.824;9.562;2022-11-14T12:11:19;12.30;71.40
12426;DHT22;6277;49.824;9.562;2022-11-14T12:14:09;12.40;71.80
12426;DHT22;6277;49.824;9.562;2022-11-14T12:30:30;12.90;71.60
12426;DHT22;6277;49.824;9.562;2022-11-14T12:35:28;12.90;71.70
12426;DHT22;6277;49.824;9.562;2022-11-14T12:37:55;13.00;71.30
12426;DHT22;6277;49.824;9.562;2022-11-14T12:40:28;13.00;71.20
12426;DHT22;6277;49.824;9.562;2022-11-14T12:42:57;13.00;71.10
12426;DHT22;6277;49.824;9.562;2022-11-14T12:50:50;13.10;70.80
12426;DHT22;6277;49.824;9.562;2022-11-14T12:59:19;13.00;70.40
12426;DHT22;6277;49.824;9.562;2022-11-14T13:07:27;13.10;71.00
12426;DHT22;6277;49.824;9.562;2022-11-14T13:10:00;13.20;71.40
12426;DHT22;6277;49.824;9.562;2022-11-14T13:12:34;13.20;71.60
12426;DHT22;6277;49.824;9.562;2022-11-14T13:15:27;13.30;71.30
12426;DHT22;6277;49.824;9.562;2022-11-14T13:21:03;13.50;71.50
12426;DHT22;6277;49.824;9.562;2022-11-14T13:28:57;13.70;70.90
12426;DHT22;6277;49.824;9.562;2022-11-14T13:31:41;13.70;70.20
12426;DHT22;6277;49.824;9.562;2022-11-14T13:42:58;13.80;69.90
12426;DHT22;6277;49.824;9.562;2022-11-14T13:51:00;13.70;69.70
12426;DHT22;6277;49.824;9.562;2022-11-14T13:53:28;13.60;69.50
12426;DHT22;6277;49.824;9.562;2022-11-14T14:01:24;13.40;69.70
12426;DHT22;6277;49.824;9.562;2022-11-14T14:06:56;13.30;69.60
12426;DHT22;6277;49.824;9.562;2022-11-14T14:17:48;13.10;70.00
12426;DHT22;6277;49.824;9.562;2022-11-14T14:25:55;13.00;69.80
12426;DHT22;6277;49.824;9.562;2022-11-14T14:31:11;13.00;69.90
12426;DHT22;6277;49.824;9.562;2022-11-14T14:33:44;13.00;70.10
12426;DHT22;6277;49.824;9.562;2022-11-14T14:38:42;13.00;70.30
12426;DHT22;6277;49.824;9.562;2022-11-14T14:41:10;13.00;70.40
12426;DHT22;6277;49.824;9.562;2022-11-14T14:43:36;13.00;70.80
12426;DHT22;6277;49.824;9.562;2022-11-14T14:46:02;13.00;70.00
12426;DHT22;6277;49.824;9.562;2022-11-14T14:48:30;13.00;69.90
12426;DHT22;6277;49.824;9.562;2022-11-14T14:50:58;12.90;69.80
12426;DHT22;6277;49.824;9.562;2022-11-14T14:53:28;12.90;69.80
12426;DHT22;6277;49.824;9.562;2022-11-14T14:55:58;12.80;69.70
12426;DHT22;6277;49.824;9.562;2022-11-14T14:58:26;12.70;70.00
12426;DHT22;6277;49.824;9.562;2022-11-14T15:01:14;12.70;69.80
12426;DHT22;6277;49.824;9.562;2022-11-14T15:03:42;12.60;69.90
12426;DHT22;6277;49.824;9.562;2022-11-14T15:08:57;12.50;69.80
12426;DHT22;6277;49.824;9.562;2022-11-14T15:11:24;12.50;69.90
12426;DHT22;6277;49.824;9.562;2022-11-14T15:13:53;12.40;69.80
12426;DHT22;6277;49.824;9.562;2022-11-14T15:16:21;12.30;69.80
12426;DHT22;6277;49.824;9.562;2022-11-14T15:18:48;12.30;69.90
12426;DHT22;6277;49.824;9.562;2022-11-14T15:26:43;12.10;70.10
12426;DHT22;6277;49.824;9.562;2022-11-14T15:29:23;12.10;70.20
12426;DHT22;6277;49.824;9.562;2022-11-14T15:31:56;12.10;70.30
12426;DHT22;6277;49.824;9.562;2022-11-14T15:34:31;12.10;70.40
12426;DHT22;6277;49.824;9.562;2022-11-14T15:37:27;12.00;70.40
12426;DHT22;6277;49.824;9.562;2022-11-14T15:39:52;12.00;70.40
12426;DHT22;6277;49.824;9.562;2022-11-14T15:44:52;12.00;70.50
12426;DHT22;6277;49.824;9.562;2022-11-14T15:52:32;11.90;70.60
12426;DHT22;6277;49.824;9.562;2022-11-14T15:54:58;11.90;70.50
12426;DHT22;6277;49.824;9.562;2022-11-14T15:57:24;11.90;71.10
12426;DHT22;6277;49.824;9.562;2022-11-14T15:59:50;11.80;70.30
12426;DHT22;6277;49.824;9.562;2022-11-14T16:02:21;11.80;70.30
12426;DHT22;6277;49.824;9.562;2022-11-14T16:04:49;11.80;70.40
12426;DHT22;6277;49.824;9.562;2022-11-14T16:07:16;11.70;70.40
12426;DHT22;6277;49.824;9.562;2022-11-14T16:09:42;11.60;70.40
12426;DHT22;6277;49.824;9.562;2022-11-14T16:12:08;11.60;70.60
12426;DHT22;6277;49.824;9.562;2022-11-14T16:14:34;11.60;70.80
12426;DHT22;6277;49.824;9.562;2022-11-14T16:17:00;11.60;70.90
12426;DHT22;6277;49.824;9.562;2022-11-14T16:19:26;11.60;71.10
12426;DHT22;6277;49.824;9.562;2022-11-14T16:21:51;11.50;71.20
12426;DHT22;6277;49.824;9.562;2022-11-14T16:24:19;11.50;71.20
12426;DHT22;6277;49.824;9.562;2022-11-14T16:26:45;11.60;71.40
12426;DHT22;6277;49.824;9.562;2022-11-14T16:29:11;11.60;71.40
12426;DHT22;6277;49.824;9.562;2022-11-14T16:31:37;11.60;71.50
12426;DHT22;6277;49.824;9.562;2022-11-14T16:34:03;11.60;71.50
12426;DHT22;6277;49.824;9.562;2022-11-14T16:36:29;11.70;71.60
12426;DHT22;6277;49.824;9.562;2022-11-14T16:38:59;11.70;71.70
12426;DHT22;6277;49.824;9.562;2022-11-14T16:41:26;11.80;71.80
12426;DHT22;6277;49.824;9.562;2022-11-14T16:43:55;11.80;71.80
12426;DHT22;6277;49.824;9.562;2022-11-14T16:46:22;11.80;71.80
12426;DHT22;6277;49.824;9.562;2022-11-14T16:48:49;11.90;71.90
12426;DHT22;6277;49.824;9.562;2022-11-14T16:51:14;12.00;71.80
12426;DHT22;6277;49.824;9.562;2022-11-14T16:53:40;12.00;71.80
12426;DHT22;6277;49.824;9.562;2022-11-14T16:56:05;12.10;71.80
12426;DHT22;6277;49.824;9.562;2022-11-14T16:58:34;12.10;71.80
12426;DHT22;6277;49.824;9.562;2022-11-14T17:01:02;12.10;71.70
12426;DHT22;6277;49.824;9.562;2022-11-14T17:03:29;12.20;71.70
12426;DHT22;6277;49.824;9.562;2022-11-14T17:05:55;12.20;71.70
12426;DHT22;6277;49.824;9.562;2022-11-14T17:08:20;12.30;71.70
12426;DHT22;6277;49.824;9.562;2022-11-14T17:10:46;12.30;71.70
12426;DHT22;6277;49.824;9.562;2022-11-14T17:13:13;12.30;71.70
12426;DHT22;6277;49.824;9.562;2022-11-14T17:15:39;12.30;71.60
12426;DHT22;6277;49.824;9.562;2022-11-14T17:18:05;12.40;71.70
12426;DHT22;6277;49.824;9.562;2022-11-14T17:20:31;12.40;71.60
12426;DHT22;6277;49.824;9.562;2022-11-14T17:22:57;12.40;71.60
12426;DHT22;6277;49.824;9.562;2022-11-14T17:25:23;12.40;71.60
12426;DHT22;6277;49.824;9.562;2022-11-14T17:27:49;12.50;71.60
12426;DHT22;6277;49.824;9.562;2022-11-14T17:30:16;12.50;71.60
12426;DHT22;6277;49.824;9.562;2022-11-14T17:32:41;12.50;71.50
12426;DHT22;6277;49.824;9.562;2022-11-14T17:35:07;12.50;71.50
12426;DHT22;6277;49.824;9.562;2022-11-14T17:37:33;12.50;71.50
12426;DHT22;6277;49.824;9.562;2022-11-14T17:39:59;12.50;71.50
12426;DHT22;6277;49.824;9.562;2022-11-14T17:42:25;12.60;71.50
12426;DHT22;6277;49.824;9.562;2022-11-14T17:44:50;12.60;71.60
12426;DHT22;6277;49.824;9.562;2022-11-14T17:47:17;12.60;71.50
12426;DHT22;6277;49.824;9.562;2022-11-14T17:49:43;12.60;71.60
12426;DHT22;6277;49.824;9.562;2022-11-14T17:52:08;12.60;71.50
12426;DHT22;6277;49.824;9.562;2022-11-14T17:54:34;12.70;71.50
12426;DHT22;6277;49.824;9.562;2022-11-14T17:57:03;12.70;71.50
12426;DHT22;6277;49.824;9.562;2022-11-14T17:59:29;12.70;71.50
12426;DHT22;6277;49.824;9.562;2022-11-14T18:01:54;12.70;71.50
12426;DHT22;6277;49.824;9.562;2022-11-14T18:04:27;12.70;71.50
12426;DHT22;6277;49.824;9.562;2022-11-14T18:06:53;12.70;71.50
12426;DHT22;6277;49.824;9.562;2022-11-14T18:09:18;12.70;71.50
12426;DHT22;6277;49.824;9.562;2022-11-14T18:11:44;12.70;71.50
12426;DHT22;6277;49.824;9.562;2022-11-14T18:14:10;12.70;71.60
12426;DHT22;6277;49.824;9.562;2022-11-14T18:16:36;12.70;71.50
12426;DHT22;6277;49.824;9.562;2022-11-14T18:19:02;12.80;71.60